createdAt,value
2023-05-19T00:01:44.120Z,30.30
2023-05-19T00:04:12.675Z,24.70
2023-05-19T00:06:41.665Z,26.70
2023-05-19T00:09:09.701Z,24.70
2023-05-19T00:11:37.627Z,25.60
2023-05-19T00:14:08.741Z,25.90
2023-05-19T00:16:36.429Z,26.90
2023-05-19T00:19:04.191Z,20.20
2023-05-19T00:21:31.545Z,32.90
2023-05-19T00:23:58.674Z,27.10
2023-05-19T00:26:27.403Z,27.20
2023-05-19T00:28:56.553Z,25.90
2023-05-19T00:31:23.649Z,21.10
2023-05-19T00:33:50.721Z,25.30
2023-05-19T00:36:17.731Z,24.90
2023-05-19T00:38:44.745Z,22.80
2023-05-19T00:41:12.537Z,21.70
2023-05-19T00:43:39.625Z,20.20
2023-05-19T00:46:07.693Z,24.60
2023-05-19T00:48:35.186Z,22.10
2023-05-19T00:51:04.906Z,27.60
2023-05-19T00:53:35.324Z,21.10
2023-05-19T00:56:02.473Z,23.70
2023-05-19T00:58:30.514Z,24.70
2023-05-19T01:01:03.697Z,22.10
2023-05-19T01:03:35.766Z,26.20
2023-05-19T01:06:07.522Z,22.60
2023-05-19T01:08:38.261Z,25.40
2023-05-19T01:11:06.932Z,21.40
2023-05-19T01:13:34.919Z,22.70
2023-05-19T01:16:01.940Z,24.10
2023-05-19T01:18:56.511Z,26.60
2023-05-19T01:21:45.411Z,22.00
2023-05-19T01:24:45.579Z,26.50
2023-05-19T01:27:38.282Z,22.90
2023-05-19T01:30:22.513Z,24.00
2023-05-19T01:32:49.595Z,22.30
2023-05-19T01:35:16.751Z,30.00
2023-05-19T01:37:45.491Z,20.60
2023-05-19T01:40:13.029Z,23.90
2023-05-19T01:42:40.217Z,23.60
2023-05-19T01:45:10.585Z,28.70
2023-05-19T01:47:43.922Z,28.10
2023-05-19T01:50:11.507Z,26.90
2023-05-19T01:52:38.697Z,26.70
2023-05-19T01:55:06.414Z,24.90
2023-05-19T01:57:39.537Z,19.60
2023-05-19T02:00:16.853Z,22.10
2023-05-19T02:03:13.996Z,30.40
2023-05-19T02:05:48.261Z,24.70
2023-05-19T02:08:20.804Z,17.40
2023-05-19T02:10:52.291Z,18.70
2023-05-19T02:13:21.563Z,21.50
2023-05-19T02:15:48.818Z,25.70
2023-05-19T02:18:18.076Z,22.20
2023-05-19T02:20:49.962Z,26.30
2023-05-19T02:23:17.571Z,23.90
2023-05-19T02:25:44.683Z,21.80
2023-05-19T02:28:11.900Z,22.20
2023-05-19T02:30:38.984Z,26.20
2023-05-19T02:33:06.776Z,21.20
2023-05-19T02:35:34.131Z,20.70
2023-05-19T02:38:01.320Z,21.10
2023-05-19T02:40:28.572Z,21.60
2023-05-19T02:42:55.634Z,21.80
2023-05-19T02:45:22.956Z,20.00
2023-05-19T02:47:50.034Z,24.50
2023-05-19T02:50:17.302Z,20.60
2023-05-19T02:52:44.362Z,22.20
2023-05-19T02:55:17.125Z,24.60
2023-05-19T02:57:44.291Z,23.00
2023-05-19T03:00:12.129Z,27.70
2023-05-19T03:02:40.008Z,25.70
2023-05-19T03:05:08.714Z,20.70
2023-05-19T03:07:36.390Z,25.30
2023-05-19T03:10:06.941Z,25.00
2023-05-19T03:12:34.144Z,25.40
2023-05-19T03:15:01.192Z,25.20
2023-05-19T03:17:33.947Z,22.60
2023-05-19T03:20:01.692Z,25.00
2023-05-19T03:22:28.787Z,22.80
2023-05-19T03:24:56.092Z,27.00
2023-05-19T03:27:23.251Z,24.60
2023-05-19T03:29:50.942Z,29.80
2023-05-19T03:32:18.077Z,25.90
2023-05-19T03:34:46.154Z,24.90
2023-05-19T03:37:13.377Z,21.10
2023-05-19T03:39:40.710Z,24.40
2023-05-19T03:42:07.984Z,23.80
2023-05-19T03:44:35.508Z,21.70
2023-05-19T03:47:02.583Z,23.70
2023-05-19T03:49:54.722Z,21.50
2023-05-19T03:52:51.035Z,21.30
2023-05-19T03:55:30.087Z,28.30
2023-05-19T03:57:57.470Z,27.70
2023-05-19T04:00:24.683Z,24.10
2023-05-19T04:02:52.038Z,25.90
2023-05-19T04:05:19.280Z,25.70
2023-05-19T04:07:46.965Z,30.40
2023-05-19T04:10:14.038Z,24.90
2023-05-19T04:12:41.115Z,23.90
2023-05-19T04:15:11.563Z,25.50
2023-05-19T04:17:38.688Z,26.70
2023-05-19T04:20:06.800Z,27.40
2023-05-19T04:22:33.820Z,24.60
2023-05-19T04:25:01.102Z,22.70
2023-05-19T04:27:30.195Z,27.50
2023-05-19T04:29:58.329Z,21.90
2023-05-19T04:32:25.947Z,22.80
2023-05-19T04:34:53.520Z,24.30
2023-05-19T04:37:24.367Z,40.80
2023-05-19T04:39:52.457Z,27.20
2023-05-19T04:42:19.901Z,25.70
2023-05-19T04:44:49.484Z,26.60
2023-05-19T04:47:16.781Z,23.10
2023-05-19T04:49:44.468Z,20.10
2023-05-19T04:52:11.894Z,21.40
2023-05-19T04:54:40.028Z,24.70
2023-05-19T04:57:07.386Z,27.00
2023-05-19T04:59:37.152Z,25.60
2023-05-19T05:02:06.023Z,27.00
2023-05-19T05:04:33.741Z,23.00
2023-05-19T05:07:01.508Z,23.70
2023-05-19T05:09:29.101Z,25.90
2023-05-19T05:11:57.728Z,19.40
2023-05-19T05:14:25.676Z,19.80
2023-05-19T05:16:54.119Z,21.60
2023-05-19T05:19:23.979Z,23.30
2023-05-19T05:21:52.314Z,23.30
2023-05-19T05:24:20.476Z,21.50
2023-05-19T05:26:51.894Z,24.50
2023-05-19T05:29:19.898Z,30.30
2023-05-19T05:31:46.953Z,26.20
2023-05-19T05:34:14.102Z,24.70
2023-05-19T05:36:41.466Z,24.60
2023-05-19T05:39:09.419Z,25.60
2023-05-19T05:41:36.792Z,21.70
2023-05-19T05:44:10.724Z,25.90
2023-05-19T05:46:39.305Z,21.30
2023-05-19T05:49:07.078Z,26.50
2023-05-19T05:51:34.865Z,28.10
2023-05-19T05:54:02.415Z,21.10
2023-05-19T05:56:37.113Z,16.20
2023-05-19T05:59:06.012Z,22.40
2023-05-19T06:01:35.496Z,26.60
2023-05-19T06:04:03.431Z,19.40
2023-05-19T06:06:31.444Z,18.30
2023-05-19T06:08:59.555Z,22.10
2023-05-19T06:11:28.872Z,23.70
2023-05-19T06:13:57.352Z,25.70
2023-05-19T06:16:51.118Z,24.20
2023-05-19T06:19:20.163Z,19.90
2023-05-19T06:21:48.525Z,18.40
2023-05-19T06:24:16.681Z,12.10
2023-05-19T06:26:45.382Z,17.70
2023-05-19T06:29:12.579Z,15.00
2023-05-19T06:31:40.040Z,16.90
2023-05-19T06:34:12.807Z,17.80
2023-05-19T06:36:41.677Z,14.50
2023-05-19T06:39:09.156Z,17.70
2023-05-19T06:41:36.471Z,16.50
2023-05-19T06:44:04.429Z,16.10
2023-05-19T06:46:33.706Z,16.30
2023-05-19T06:49:01.423Z,13.90
2023-05-19T06:51:32.414Z,15.80
2023-05-19T06:54:00.365Z,18.40
2023-05-19T06:56:28.368Z,18.80
2023-05-19T06:58:56.361Z,17.60
2023-05-19T07:01:28.119Z,18.30
2023-05-19T07:03:55.683Z,26.10
2023-05-19T07:06:23.136Z,16.20
2023-05-19T07:08:50.980Z,18.00
2023-05-19T07:11:19.222Z,12.10
2023-05-19T07:13:47.726Z,16.60
2023-05-19T07:16:18.213Z,19.80
2023-05-19T07:18:45.405Z,17.60
2023-05-19T07:21:12.451Z,16.20
2023-05-19T07:23:39.664Z,16.40
2023-05-19T07:26:06.705Z,21.00
2023-05-19T07:28:34.637Z,14.70
2023-05-19T07:31:01.667Z,13.60
2023-05-19T07:33:28.863Z,11.20
2023-05-19T07:35:56.361Z,14.30
2023-05-19T07:38:23.487Z,15.10
2023-05-19T07:40:50.602Z,13.40
2023-05-19T07:43:17.717Z,12.30
2023-05-19T07:45:44.822Z,15.20
2023-05-19T07:48:12.008Z,13.10
2023-05-19T07:50:39.229Z,10.60
2023-05-19T07:53:06.382Z,10.60
2023-05-19T07:55:33.541Z,15.80
2023-05-19T07:58:00.957Z,11.70
2023-05-19T08:00:28.506Z,10.40
2023-05-19T08:02:57.297Z,17.30
2023-05-19T08:05:26.140Z,16.10
2023-05-19T08:07:53.353Z,12.10
2023-05-19T08:10:20.437Z,10.60
2023-05-19T08:12:47.520Z,14.10
2023-05-19T08:15:14.634Z,19.30
2023-05-19T08:17:41.772Z,12.50
2023-05-19T08:20:10.396Z,13.60
2023-05-19T08:22:37.624Z,12.30
2023-05-19T08:25:06.480Z,14.30
2023-05-19T08:27:33.772Z,20.40
2023-05-19T08:30:00.968Z,14.80
2023-05-19T08:32:28.164Z,21.40
2023-05-19T08:34:55.354Z,13.20
2023-05-19T08:37:22.927Z,22.80
2023-05-19T08:39:51.773Z,14.40
2023-05-19T08:42:19.334Z,16.30
2023-05-19T08:44:46.480Z,13.90
2023-05-19T08:47:14.061Z,16.30
2023-05-19T08:49:45.523Z,13.90
2023-05-19T08:52:22.286Z,14.80
2023-05-19T08:55:09.790Z,16.90
2023-05-19T08:57:37.167Z,16.00
2023-05-19T09:00:12.384Z,13.50
2023-05-19T09:02:50.433Z,14.40
2023-05-19T09:05:27.051Z,14.20
2023-05-19T09:07:54.377Z,13.40
2023-05-19T09:10:21.558Z,16.20
2023-05-19T09:12:49.832Z,18.00
2023-05-19T09:15:18.983Z,17.60
2023-05-19T09:17:48.280Z,18.70
2023-05-19T09:20:17.052Z,22.60
2023-05-19T09:22:47.671Z,28.00
2023-05-19T09:27:46.982Z,20.00
2023-05-19T09:30:15.297Z,12.90
2023-05-19T09:32:43.270Z,15.30
2023-05-19T09:35:11.805Z,12.10
2023-05-19T09:37:42.225Z,23.50
2023-05-19T09:40:11.360Z,14.10
2023-05-19T09:45:09.902Z,13.70
2023-05-19T09:47:38.493Z,9.50
2023-05-19T09:50:08.179Z,15.20
2023-05-19T09:52:36.438Z,12.20
2023-05-19T09:55:05.730Z,10.90
2023-05-19T09:57:40.279Z,12.50
2023-05-19T10:00:20.968Z,12.60
2023-05-19T10:05:17.725Z,12.70
2023-05-19T10:07:45.943Z,13.20
2023-05-19T10:10:14.165Z,14.10
2023-05-19T10:12:41.446Z,10.20
2023-05-19T10:15:19.232Z,12.80
2023-05-19T10:17:47.833Z,15.30
2023-05-19T10:20:16.202Z,10.80
2023-05-19T10:22:44.337Z,9.70
2023-05-19T10:25:13.158Z,10.30
2023-05-19T10:27:45.268Z,9.10
2023-05-19T10:30:16.337Z,10.80
2023-05-19T10:32:44.410Z,10.80
2023-05-19T10:35:42.405Z,11.30
2023-05-19T10:38:43.689Z,10.60
2023-05-19T10:41:13.444Z,9.60
2023-05-19T10:43:59.379Z,8.70
2023-05-19T10:46:27.248Z,10.60
2023-05-19T10:48:54.414Z,8.80
2023-05-19T10:51:21.639Z,13.30
2023-05-19T10:53:50.245Z,11.40
2023-05-19T10:56:36.154Z,13.10
2023-05-19T10:59:05.079Z,13.50
2023-05-19T11:01:36.282Z,9.60
2023-05-19T11:04:07.861Z,7.80
2023-05-19T11:06:38.314Z,12.80
2023-05-19T11:09:16.369Z,14.60
2023-05-19T11:11:48.294Z,10.30
2023-05-19T11:14:20.382Z,8.20
2023-05-19T11:16:48.569Z,7.70
2023-05-19T11:19:20.846Z,11.60
2023-05-19T11:21:53.009Z,8.80
2023-05-19T11:24:44.752Z,15.20
2023-05-19T11:27:21.672Z,12.10
2023-05-19T11:29:49.090Z,8.20
2023-05-19T11:32:16.412Z,10.40
2023-05-19T11:34:44.815Z,8.10
2023-05-19T11:37:12.143Z,9.70
2023-05-19T11:39:39.852Z,9.50
2023-05-19T11:42:08.863Z,9.60
2023-05-19T11:44:37.231Z,10.50
2023-05-19T11:47:05.372Z,10.00
2023-05-19T11:49:32.736Z,10.70
2023-05-19T11:52:03.453Z,8.70
2023-05-19T11:54:37.234Z,12.50
2023-05-19T11:57:04.764Z,8.80
2023-05-19T11:59:34.223Z,7.70
2023-05-19T12:02:17.383Z,12.40
2023-05-19T12:04:44.603Z,10.70
2023-05-19T12:07:13.197Z,10.60
2023-05-19T12:09:40.598Z,9.20
2023-05-19T12:12:08.099Z,9.50
2023-05-19T12:14:36.029Z,10.70
2023-05-19T12:17:17.168Z,10.10
2023-05-19T12:19:44.734Z,9.30
2023-05-19T12:22:11.848Z,11.20
2023-05-19T12:24:38.979Z,11.00
2023-05-19T12:27:26.829Z,5.90
2023-05-19T12:29:55.067Z,9.00
2023-05-19T12:32:25.871Z,15.50
2023-05-19T12:34:53.586Z,8.50
2023-05-19T12:37:21.322Z,6.10
2023-05-19T12:39:51.993Z,4.90
2023-05-19T12:42:20.098Z,6.40
2023-05-19T12:44:48.588Z,4.50
2023-05-19T12:47:16.220Z,5.00
2023-05-19T12:49:56.716Z,8.80
2023-05-19T12:52:24.216Z,9.20
2023-05-19T12:55:07.962Z,7.80
2023-05-19T12:57:37.623Z,7.70
2023-05-19T13:00:14.076Z,8.00
2023-05-19T13:03:00.631Z,8.10
2023-05-19T13:05:30.941Z,9.00
2023-05-19T13:08:00.726Z,6.60
2023-05-19T13:13:00.311Z,9.60
2023-05-19T13:15:34.674Z,8.60
2023-05-19T13:18:03.581Z,6.70
2023-05-19T13:20:31.125Z,11.10
2023-05-19T13:22:58.557Z,28.80
2023-05-19T13:25:26.548Z,19.60
2023-05-19T13:27:54.583Z,13.00
2023-05-19T13:30:22.140Z,6.70
2023-05-19T13:32:49.268Z,3.60
2023-05-19T13:35:16.380Z,4.40
2023-05-19T13:37:43.656Z,5.70
2023-05-19T13:40:11.133Z,4.30
2023-05-19T13:42:38.276Z,7.70
2023-05-19T13:45:05.689Z,6.40
2023-05-19T13:47:32.957Z,6.00
2023-05-19T13:50:00.126Z,6.60
2023-05-19T13:52:29.069Z,5.00
2023-05-19T13:54:57.662Z,3.90
2023-05-19T13:57:25.687Z,6.70
2023-05-19T14:00:01.972Z,6.00
2023-05-19T14:02:39.700Z,4.20
2023-05-19T14:05:07.639Z,4.90
2023-05-19T14:07:35.395Z,3.70
2023-05-19T14:10:04.067Z,3.40
2023-05-19T14:12:43.162Z,6.40
2023-05-19T14:15:14.743Z,5.80
2023-05-19T14:17:42.919Z,3.60
2023-05-19T14:20:10.693Z,6.40
2023-05-19T14:22:38.545Z,4.30
2023-05-19T14:25:06.559Z,4.50
2023-05-19T14:27:33.609Z,5.60
2023-05-19T14:30:00.851Z,4.20
2023-05-19T14:32:30.268Z,6.90
2023-05-19T14:34:57.767Z,5.40
2023-05-19T14:37:27.700Z,8.90
2023-05-19T14:39:55.123Z,7.80
2023-05-19T14:42:22.136Z,4.80
2023-05-19T14:44:49.227Z,6.90
2023-05-19T14:47:16.421Z,6.30
2023-05-19T14:49:43.572Z,6.70
2023-05-19T14:52:10.696Z,7.90
2023-05-19T14:54:37.817Z,7.60
2023-05-19T14:57:07.378Z,5.70
2023-05-19T14:59:38.754Z,8.10
2023-05-19T15:02:06.202Z,5.10
2023-05-19T15:04:33.289Z,11.70
2023-05-19T15:09:30.799Z,11.90
2023-05-19T15:11:58.255Z,7.70
2023-05-19T15:14:26.214Z,9.80
2023-05-19T15:16:54.882Z,6.80
2023-05-19T15:19:22.051Z,7.50
2023-05-19T15:21:50.810Z,5.90
2023-05-19T15:24:18.047Z,6.10
2023-05-19T15:26:45.513Z,6.60
2023-05-19T15:29:12.539Z,4.70
2023-05-19T15:31:39.737Z,11.70
2023-05-19T15:34:06.836Z,9.80
2023-05-19T15:36:33.903Z,6.30
2023-05-19T15:39:01.013Z,5.80
2023-05-19T15:41:28.085Z,11.50
2023-05-19T15:43:55.351Z,5.00
2023-05-19T15:46:23.033Z,8.00
2023-05-19T15:48:50.169Z,9.80
2023-05-19T15:51:17.275Z,8.60
2023-05-19T15:53:44.402Z,6.40
2023-05-19T15:56:11.608Z,6.50
2023-05-19T15:58:38.643Z,13.80
2023-05-19T16:01:05.966Z,7.30
2023-05-19T16:03:33.619Z,9.60
2023-05-19T16:06:01.228Z,8.50
2023-05-19T16:08:28.843Z,8.70
2023-05-19T16:10:56.462Z,10.50
2023-05-19T16:13:23.980Z,7.70
2023-05-19T16:15:51.071Z,11.00
2023-05-19T16:18:18.466Z,14.50
2023-05-19T16:20:55.352Z,10.60
2023-05-19T16:23:27.597Z,10.00
2023-05-19T16:25:55.073Z,15.80
2023-05-19T16:28:24.470Z,8.90
2023-05-19T16:30:51.944Z,10.10
2023-05-19T16:33:19.029Z,9.30
2023-05-19T16:35:46.188Z,7.90
2023-05-19T16:38:13.267Z,10.80
2023-05-19T16:40:40.386Z,14.70
2023-05-19T16:43:07.458Z,19.10
2023-05-19T16:45:34.621Z,17.60
2023-05-19T16:48:01.957Z,14.90
2023-05-19T16:50:29.211Z,12.50
2023-05-19T16:52:56.309Z,11.10
2023-05-19T16:55:25.481Z,10.30
2023-05-19T16:57:52.817Z,12.50
2023-05-19T17:00:20.137Z,8.90
2023-05-19T17:02:47.339Z,8.40
2023-05-19T17:05:14.506Z,3.40
2023-05-19T17:07:41.761Z,6.00
2023-05-19T17:10:09.477Z,3.40
2023-05-19T17:12:37.077Z,5.60
2023-05-19T17:15:04.597Z,3.80
2023-05-19T17:17:31.723Z,7.60
2023-05-19T17:19:58.849Z,4.20
2023-05-19T17:22:26.658Z,7.30
2023-05-19T17:24:54.891Z,4.60
2023-05-19T17:27:22.800Z,6.70
2023-05-19T17:29:49.878Z,3.80
2023-05-19T17:32:18.135Z,3.20
2023-05-19T17:34:45.264Z,4.30
2023-05-19T17:37:12.501Z,3.20
2023-05-19T17:39:39.783Z,4.40
2023-05-19T17:42:07.169Z,8.60
2023-05-19T17:44:34.328Z,16.80
2023-05-19T17:47:02.595Z,5.50
2023-05-19T17:49:30.699Z,4.90
2023-05-19T17:51:58.568Z,10.20
2023-05-19T17:54:26.587Z,5.90
2023-05-19T17:56:53.763Z,7.90
2023-05-19T17:59:21.404Z,5.60
2023-05-19T18:01:49.364Z,9.30
2023-05-19T18:04:20.115Z,9.50
2023-05-19T18:06:47.629Z,9.20
2023-05-19T18:09:15.279Z,9.80
2023-05-19T18:11:42.609Z,8.60
2023-05-19T18:14:10.077Z,11.20
2023-05-19T18:16:38.233Z,8.20
2023-05-19T18:19:06.949Z,9.30
2023-05-19T18:21:34.565Z,8.50
2023-05-19T18:24:04.458Z,11.80
2023-05-19T18:26:31.863Z,11.90
2023-05-19T18:29:02.773Z,11.70
2023-05-19T18:31:29.938Z,14.70
2023-05-19T18:33:57.158Z,10.30
2023-05-19T18:36:26.846Z,9.60
2023-05-19T18:38:55.344Z,12.80
2023-05-19T18:41:22.478Z,10.00
2023-05-19T18:43:49.737Z,14.10
2023-05-19T18:46:20.484Z,11.10
2023-05-19T18:48:49.949Z,10.90
2023-05-19T18:51:18.885Z,12.50
2023-05-19T18:53:48.811Z,15.40
2023-05-19T18:56:23.267Z,17.50
2023-05-19T18:58:50.365Z,11.20
2023-05-19T19:01:17.521Z,11.30
2023-05-19T19:03:46.928Z,9.90
2023-05-19T19:06:14.166Z,14.20
2023-05-19T19:08:41.478Z,14.40
2023-05-19T19:11:11.381Z,15.80
2023-05-19T19:13:38.615Z,11.20
2023-05-19T19:16:07.035Z,9.90
2023-05-19T19:18:37.409Z,10.00
2023-05-19T19:21:05.964Z,10.50
2023-05-19T19:23:33.506Z,9.90
2023-05-19T19:26:00.960Z,22.20
2023-05-19T19:28:28.654Z,12.80
2023-05-19T19:30:55.770Z,20.50
2023-05-19T19:33:22.992Z,13.00
2023-05-19T19:35:50.060Z,11.50
2023-05-19T19:38:17.278Z,10.00
2023-05-19T19:40:44.601Z,10.70
2023-05-19T19:43:12.232Z,9.00
2023-05-19T19:45:39.793Z,8.50
2023-05-19T19:48:07.470Z,8.90
2023-05-19T19:50:34.749Z,9.70
2023-05-19T19:53:02.176Z,8.70
2023-05-19T19:55:30.837Z,11.90
2023-05-19T19:57:58.036Z,12.50
2023-05-19T20:00:25.725Z,7.70
2023-05-19T20:03:04.612Z,11.30
2023-05-19T20:05:32.921Z,9.40
2023-05-19T20:08:00.103Z,16.90
2023-05-19T20:10:27.191Z,9.50
2023-05-19T20:12:54.323Z,10.60
2023-05-19T20:15:21.632Z,10.00
2023-05-19T20:17:49.883Z,8.70
2023-05-19T20:20:17.043Z,12.90
2023-05-19T20:22:46.061Z,16.70
2023-05-19T20:25:13.118Z,9.30
2023-05-19T20:27:40.692Z,8.50
2023-05-19T20:30:08.348Z,11.50
2023-05-19T20:32:35.835Z,12.30
2023-05-19T20:35:02.932Z,15.20
2023-05-19T20:37:29.972Z,10.10
2023-05-19T20:39:56.961Z,12.50
2023-05-19T20:42:24.507Z,11.00
2023-05-19T20:44:52.189Z,10.20
2023-05-19T20:47:19.443Z,15.70
2023-05-19T20:49:46.651Z,14.90
2023-05-19T20:52:14.877Z,14.70
2023-05-19T20:54:42.221Z,11.70
2023-05-19T20:57:09.607Z,10.70
2023-05-19T20:59:36.713Z,14.70
2023-05-19T21:02:04.498Z,12.60
2023-05-19T21:04:33.064Z,11.00
2023-05-19T21:07:00.742Z,12.80
2023-05-19T21:09:27.878Z,10.60
2023-05-19T21:11:54.893Z,15.30
2023-05-19T21:14:22.088Z,12.50
2023-05-19T21:16:50.037Z,11.60
2023-05-19T21:19:17.212Z,10.80
2023-05-19T21:21:45.091Z,9.50
2023-05-19T21:24:13.085Z,11.30
2023-05-19T21:26:42.034Z,10.50
2023-05-19T21:29:10.238Z,9.70
2023-05-19T21:31:37.363Z,14.30
2023-05-19T21:34:06.190Z,11.60
2023-05-19T21:39:03.791Z,11.10
2023-05-19T21:41:32.543Z,10.10
2023-05-19T21:43:59.638Z,12.60
2023-05-19T21:46:29.164Z,11.80
2023-05-19T21:48:56.413Z,11.00
2023-05-19T21:51:23.442Z,8.00
2023-05-19T21:53:50.727Z,11.20
2023-05-19T21:56:17.792Z,8.50
2023-05-19T21:58:45.167Z,8.20
2023-05-19T22:01:13.393Z,10.30
2023-05-19T22:03:40.451Z,11.00
2023-05-19T22:06:07.744Z,10.30
2023-05-19T22:08:34.899Z,10.80
2023-05-19T22:11:02.189Z,8.60
2023-05-19T22:13:29.488Z,11.00
2023-05-19T22:15:57.800Z,8.10
2023-05-19T22:18:25.305Z,12.40
2023-05-19T22:20:52.609Z,10.20
2023-05-19T22:23:19.664Z,10.30
2023-05-19T22:25:46.677Z,10.90
2023-05-19T22:28:13.809Z,10.80
2023-05-19T22:30:42.601Z,9.30
2023-05-19T22:33:11.436Z,10.80
2023-05-19T22:35:38.962Z,18.30
2023-05-19T22:38:07.526Z,15.50
2023-05-19T22:40:38.085Z,8.40
2023-05-19T22:43:05.848Z,10.60
2023-05-19T22:45:34.547Z,12.00
2023-05-19T22:48:02.338Z,9.30
2023-05-19T22:50:29.408Z,7.70
2023-05-19T22:52:56.651Z,7.60
2023-05-19T22:55:23.930Z,11.10
2023-05-19T22:57:51.304Z,12.70
2023-05-19T23:00:21.389Z,8.90
2023-05-19T23:02:48.451Z,9.00
2023-05-19T23:05:15.822Z,11.10
2023-05-19T23:07:42.933Z,11.30
2023-05-19T23:10:10.389Z,9.90
2023-05-19T23:12:37.419Z,8.40
2023-05-19T23:15:04.918Z,8.60
2023-05-19T23:17:32.104Z,15.50
2023-05-19T23:19:59.157Z,12.60
2023-05-19T23:22:26.202Z,12.10
2023-05-19T23:24:53.236Z,8.60
2023-05-19T23:27:20.236Z,11.20
2023-05-19T23:29:49.633Z,10.20
2023-05-19T23:32:16.812Z,9.50
2023-05-19T23:34:43.861Z,7.20
2023-05-19T23:37:11.765Z,9.80
2023-05-19T23:39:38.834Z,7.20
2023-05-19T23:42:06.209Z,10.20
2023-05-19T23:44:33.244Z,9.90
2023-05-19T23:47:00.428Z,11.30
2023-05-19T23:49:27.556Z,9.80
2023-05-19T23:51:54.785Z,7.50
2023-05-19T23:54:21.871Z,10.10
2023-05-19T23:56:48.899Z,8.20
2023-05-19T23:59:15.923Z,9.90
